Time;durP1;ratioP1;P1;durP2;ratioP2;P2;SDS_P1;SDS_P2;PMS_P1;PMS_P2;Temp;Humidity;BMP_temperature;BMP_pressure;BME280_temperature;BME280_humidity;BME280_pressure;Samples;Min_cycle;Max_cycle;Signal;HPM_P1;HPM_P2
2021/06/16 00:00:39;;;;;;;9.80;4.90;;;13.10;99.70;;;;;;5087922;28;20040;-67
2021/06/16 00:03:06;;;;;;;7.10;4.32;;;13.10;99.50;;;;;;5092148;28;20036;-67
2021/06/16 00:05:32;;;;;;;11.95;5.18;;;13.10;99.70;;;;;;5090026;28;20025;-67
2021/06/16 00:07:58;;;;;;;7.32;4.40;;;13.00;99.70;;;;;;5086459;28;20067;-67
2021/06/16 00:10:26;;;;;;;6.95;4.63;;;12.90;99.90;;;;;;5081815;28;20050;-67
2021/06/16 00:12:52;;;;;;;9.40;4.72;;;12.90;99.80;;;;;;5056383;28;20541;-67
2021/06/16 00:15:36;;;;;;;11.77;5.53;;;12.80;99.90;;;;;;5088239;28;20115;-67
2021/06/16 00:18:03;;;;;;;7.85;4.30;;;12.80;99.90;;;;;;5073724;28;20431;-67
2021/06/16 00:20:29;;;;;;;9.20;4.88;;;12.70;99.90;;;;;;5083435;28;20098;-67
2021/06/16 00:22:55;;;;;;;8.73;4.80;;;12.70;99.90;;;;;;5073020;28;20036;-67
2021/06/16 00:25:21;;;;;;;7.53;4.88;;;12.70;99.90;;;;;;5052598;28;20040;-67
2021/06/16 00:27:47;;;;;;;11.95;5.00;;;12.70;99.90;;;;;;5069399;28;20040;-67
2021/06/16 00:30:14;;;;;;;8.27;4.95;;;12.70;99.90;;;;;;5058730;28;20049;-67
2021/06/16 00:32:41;;;;;;;7.00;5.22;;;12.70;99.90;;;;;;5067815;28;20497;-67
2021/06/16 00:35:07;;;;;;;6.80;4.93;;;12.60;99.90;;;;;;5063152;28;20668;-67
2021/06/16 00:37:36;;;;;;;8.63;4.78;;;12.60;99.90;;;;;;5052965;28;20033;-67
2021/06/16 00:40:10;;;;;;;8.00;4.97;;;12.60;99.90;;;;;;5056861;28;20053;-67
2021/06/16 00:42:36;;;;;;;9.18;4.95;;;12.60;99.90;;;;;;5070922;28;20044;-67
2021/06/16 00:45:04;;;;;;;13.63;6.22;;;12.60;99.90;;;;;;5059386;28;20429;-67
2021/06/16 00:47:29;;;;;;;12.50;5.03;;;12.50;99.90;;;;;;5052658;28;20114;-67
2021/06/16 00:49:55;;;;;;;13.65;6.38;;;12.50;99.90;;;;;;5062969;28;20040;-67
2021/06/16 00:52:21;;;;;;;9.20;5.07;;;12.50;99.90;;;;;;5059398;28;20033;-67
2021/06/16 00:54:46;;;;;;;7.70;5.20;;;12.50;99.90;;;;;;5052526;28;20086;-67
2021/06/16 00:57:12;;;;;;;9.52;5.75;;;12.50;99.90;;;;;;5069049;28;20416;-67
2021/06/16 00:59:59;;;;;;;10.32;5.40;;;12.50;99.90;;;;;;5055711;28;20843;-67
2021/06/16 01:02:25;;;;;;;9.02;5.25;;;12.40;99.90;;;;;;5072163;28;20044;-67
2021/06/16 01:04:54;;;;;;;11.15;5.30;;;12.40;99.90;;;;;;5072417;28;20044;-67
2021/06/16 01:07:24;;;;;;;7.90;5.05;;;12.40;99.90;;;;;;5061397;28;20402;-67
2021/06/16 01:09:58;;;;;;;10.27;5.40;;;12.40;99.90;;;;;;5052663;28;20045;-67
2021/06/16 01:12:35;;;;;;;10.48;5.13;;;12.40;99.90;;;;;;5059818;28;20113;-67
2021/06/16 01:15:05;;;;;;;9.05;5.05;;;12.40;99.90;;;;;;5071023;28;20110;-67
2021/06/16 01:18:00;;;;;;;8.68;5.43;;;12.30;99.90;;;;;;5066690;28;20105;-67
2021/06/16 01:20:41;;;;;;;8.50;5.32;;;12.20;99.90;;;;;;5071754;28;20061;-67
2021/06/16 01:23:15;;;;;;;6.63;4.78;;;12.20;99.90;;;;;;5065626;28;20036;-68
2021/06/16 01:25:47;;;;;;;8.52;5.05;;;12.10;99.90;;;;;;5080506;28;20355;-67
2021/06/16 01:28:15;;;;;;;8.45;5.00;;;12.10;99.90;;;;;;5090521;28;20127;-67
2021/06/16 01:30:42;;;;;;;10.77;4.93;;;12.10;99.90;;;;;;5091824;28;20161;-67
2021/06/16 01:33:11;;;;;;;8.38;4.50;;;12.00;99.90;;;;;;5089563;28;20180;-67
2021/06/16 01:35:38;;;;;;;8.82;5.32;;;12.00;99.90;;;;;;5090159;28;20043;-67
2021/06/16 01:38:06;;;;;;;8.80;5.10;;;12.00;99.90;;;;;;5073551;28;20070;-67
2021/06/16 01:40:33;;;;;;;7.85;4.28;;;12.00;99.90;;;;;;5090372;28;20048;-67
2021/06/16 01:43:01;;;;;;;10.25;4.90;;;12.00;99.90;;;;;;5070960;28;20060;-67
2021/06/16 01:45:30;;;;;;;9.40;5.03;;;12.00;99.90;;;;;;5091914;28;20040;-67
2021/06/16 01:47:58;;;;;;;6.50;4.88;;;12.00;99.90;;;;;;5089798;28;20046;-67
2021/06/16 01:50:25;;;;;;;8.80;5.10;;;12.00;99.90;;;;;;5082803;28;20591;-67
2021/06/16 01:52:54;;;;;;;11.48;5.18;;;12.00;99.90;;;;;;5077589;28;20036;-67
2021/06/16 01:55:21;;;;;;;6.88;5.10;;;12.00;99.90;;;;;;5076080;28;20036;-67
2021/06/16 01:57:48;;;;;;;8.20;4.93;;;11.90;99.90;;;;;;5074492;28;20039;-67
2021/06/16 02:00:16;;;;;;;8.05;4.63;;;12.00;99.90;;;;;;5088780;28;20127;-67
2021/06/16 02:02:42;;;;;;;9.95;5.47;;;11.90;99.90;;;;;;5071612;28;20066;-67
2021/06/16 02:05:09;;;;;;;9.77;5.10;;;11.90;99.90;;;;;;5091449;28;20040;-67
2021/06/16 02:07:41;;;;;;;9.00;5.00;;;11.90;99.90;;;;;;5091063;28;20035;-67
2021/06/16 02:10:09;;;;;;;6.45;4.90;;;11.90;99.90;;;;;;5081137;28;20115;-67
2021/06/16 02:12:38;;;;;;;7.55;5.53;;;11.80;99.90;;;;;;5079963;28;20036;-68
2021/06/16 02:15:10;;;;;;;10.73;5.40;;;11.80;99.90;;;;;;5100248;28;20028;-67
2021/06/16 02:17:37;;;;;;;10.05;5.85;;;11.80;99.90;;;;;;5075905;28;20036;-67
2021/06/16 02:20:07;;;;;;;7.38;5.85;;;11.80;99.90;;;;;;5072080;28;20063;-67
2021/06/16 02:22:34;;;;;;;10.23;5.47;;;11.70;99.90;;;;;;5085347;28;20044;-67
2021/06/16 02:24:59;;;;;;;8.30;5.40;;;11.70;99.90;;;;;;5073083;28;20052;-67
2021/06/16 02:27:25;;;;;;;9.80;6.05;;;11.70;99.90;;;;;;5084865;28;20479;-67
2021/06/16 02:29:51;;;;;;;9.25;5.72;;;11.70;99.90;;;;;;5071940;28;20500;-67
2021/06/16 02:32:17;;;;;;;9.93;5.60;;;11.70;99.90;;;;;;5052775;28;20094;-67
2021/06/16 02:34:43;;;;;;;8.10;5.43;;;11.70;99.90;;;;;;5076111;28;20036;-67
2021/06/16 02:37:13;;;;;;;9.80;6.25;;;11.60;99.90;;;;;;5090838;28;20500;-67
2021/06/16 02:39:42;;;;;;;10.43;6.25;;;11.60;99.90;;;;;;5072197;28;20117;-67
2021/06/16 02:42:09;;;;;;;7.80;5.80;;;11.60;99.90;;;;;;5075325;28;20481;-67
2021/06/16 02:44:35;;;;;;;9.45;5.90;;;11.60;99.90;;;;;;5070446;28;20041;-67
2021/06/16 02:47:04;;;;;;;9.85;5.90;;;11.60;99.90;;;;;;5057611;28;20074;-67
2021/06/16 02:49:41;;;;;;;10.90;6.10;;;11.60;99.90;;;;;;5081215;28;20050;-67
2021/06/16 02:52:10;;;;;;;8.23;5.75;;;11.50;99.90;;;;;;5083536;28;20028;-68
2021/06/16 02:54:38;;;;;;;9.98;6.07;;;11.50;99.90;;;;;;5083835;28;20036;-68
2021/06/16 02:57:05;;;;;;;11.00;5.97;;;11.50;99.90;;;;;;5071244;28;20032;-68
2021/06/16 02:59:32;;;;;;;8.57;6.10;;;11.50;99.90;;;;;;5089477;28;20034;-68
2021/06/16 03:01:58;;;;;;;9.27;6.22;;;11.50;99.90;;;;;;5087448;28;20119;-68
2021/06/16 03:04:25;;;;;;;12.82;6.28;;;11.50;99.90;;;;;;5081013;28;20468;-68
2021/06/16 03:06:53;;;;;;;8.50;6.20;;;11.50;99.90;;;;;;5083794;28;20131;-68
2021/06/16 03:09:21;;;;;;;11.68;6.63;;;11.50;99.90;;;;;;5067136;28;20036;-68
2021/06/16 03:11:48;;;;;;;8.52;6.57;;;11.50;99.90;;;;;;5076212;28;20459;-67
2021/06/16 03:14:14;;;;;;;10.80;7.03;;;11.50;99.90;;;;;;5077266;28;20029;-69
2021/06/16 03:16:41;;;;;;;10.40;7.22;;;11.40;99.90;;;;;;5075790;28;20550;-69
2021/06/16 03:19:08;;;;;;;10.45;6.70;;;11.50;99.90;;;;;;5073064;28;20534;-68
2021/06/16 03:21:35;;;;;;;8.88;6.60;;;11.50;99.90;;;;;;5072791;28;20494;-68
2021/06/16 03:24:02;;;;;;;11.35;6.53;;;11.50;99.90;;;;;;5088536;28;20048;-68
2021/06/16 03:26:28;;;;;;;10.50;6.80;;;11.50;99.90;;;;;;5081146;28;20413;-68
2021/06/16 03:28:55;;;;;;;8.88;6.30;;;11.50;99.90;;;;;;5072668;28;20036;-68
2021/06/16 03:31:21;;;;;;;11.00;5.93;;;11.50;99.90;;;;;;5067826;28;20040;-68
2021/06/16 03:33:48;;;;;;;10.50;6.60;;;11.50;99.90;;;;;;5067495;28;20041;-68
2021/06/16 03:36:15;;;;;;;9.88;6.38;;;11.50;99.90;;;;;;5071410;28;20039;-67
2021/06/16 03:38:42;;;;;;;11.25;6.78;;;11.50;99.90;;;;;;5071659;28;20039;-67
2021/06/16 03:41:09;;;;;;;7.80;6.75;;;11.50;99.90;;;;;;5080213;28;20153;-67
2021/06/16 03:43:36;;;;;;;9.32;6.15;;;11.60;99.90;;;;;;5084311;28;20040;-67
2021/06/16 03:46:06;;;;;;;11.73;6.38;;;11.60;99.90;;;;;;5055722;28;20043;-67
2021/06/16 03:48:33;;;;;;;9.35;6.35;;;11.60;99.90;;;;;;5073343;28;20532;-67
2021/06/16 03:51:00;;;;;;;11.77;6.95;;;11.60;99.90;;;;;;5077256;28;20470;-67
2021/06/16 03:53:27;;;;;;;7.18;6.10;;;11.60;99.90;;;;;;5088635;28;20119;-67
2021/06/16 03:55:56;;;;;;;9.10;6.82;;;11.60;99.90;;;;;;5075602;28;20037;-67
2021/06/16 03:58:22;;;;;;;9.85;5.85;;;11.60;99.90;;;;;;5093360;28;20039;-67
2021/06/16 04:00:48;;;;;;;9.57;6.60;;;11.70;99.90;;;;;;5092089;28;20055;-67
2021/06/16 04:03:15;;;;;;;9.25;6.38;;;11.80;99.90;;;;;;5073013;28;20033;-67
2021/06/16 04:05:42;;;;;;;9.73;6.20;;;11.80;99.90;;;;;;5073943;28;20041;-67
2021/06/16 04:08:10;;;;;;;8.50;6.72;;;11.80;99.90;;;;;;5072984;28;20041;-67
2021/06/16 04:10:37;;;;;;;9.18;6.72;;;11.90;99.90;;;;;;5085016;28;20458;-67
2021/06/16 04:13:03;;;;;;;9.15;6.43;;;11.90;99.90;;;;;;5093443;28;20520;-68
2021/06/16 04:15:30;;;;;;;9.02;6.60;;;12.00;99.90;;;;;;5072693;28;20477;-67
2021/06/16 04:17:58;;;;;;;11.60;6.82;;;12.00;99.90;;;;;;5093196;28;20089;-67
2021/06/16 04:20:25;;;;;;;9.05;6.90;;;12.00;99.90;;;;;;5082593;28;20044;-67
2021/06/16 04:22:51;;;;;;;8.13;7.25;;;12.00;99.90;;;;;;5072772;28;20539;-67
2021/06/16 04:25:17;;;;;;;9.57;7.07;;;12.10;99.90;;;;;;5080502;28;20051;-67
2021/06/16 04:27:43;;;;;;;12.07;6.97;;;12.10;99.90;;;;;;5059500;28;20528;-67
2021/06/16 04:30:11;;;;;;;9.85;6.78;;;12.20;99.90;;;;;;5073659;28;20122;-67
2021/06/16 04:32:38;;;;;;;10.10;6.57;;;12.20;99.90;;;;;;5079146;28;20047;-67
2021/06/16 04:35:05;;;;;;;9.35;6.75;;;12.20;99.90;;;;;;5087645;28;20036;-67
2021/06/16 04:37:31;;;;;;;11.57;7.20;;;12.30;99.90;;;;;;5078117;28;20039;-67
2021/06/16 04:39:57;;;;;;;7.50;6.60;;;12.30;99.90;;;;;;5116385;22;20052;-65
2021/06/16 04:42:23;;;;;;;11.15;7.28;;;12.40;99.90;;;;;;5059614;28;20040;-65
2021/06/16 04:44:48;;;;;;;13.90;6.85;;;12.40;99.90;;;;;;5079744;28;20477;-65
2021/06/16 04:47:14;;;;;;;9.48;6.28;;;12.50;99.90;;;;;;5077868;28;20086;-65
2021/06/16 04:49:39;;;;;;;8.23;6.80;;;12.60;99.90;;;;;;5077790;28;20028;-66
2021/06/16 04:52:05;;;;;;;8.55;6.35;;;12.60;99.90;;;;;;5083716;28;20693;-65
2021/06/16 04:54:31;;;;;;;8.77;6.53;;;12.70;99.90;;;;;;5086076;28;20112;-65
2021/06/16 04:57:03;;;;;;;10.80;7.20;;;12.80;99.90;;;;;;5078871;28;20059;-65
2021/06/16 04:59:29;;;;;;;12.85;7.57;;;12.80;99.90;;;;;;5054313;28;20032;-65
2021/06/16 05:01:55;;;;;;;12.80;7.47;;;12.90;99.90;;;;;;5072154;28;20753;-65
2021/06/16 05:04:20;;;;;;;8.52;6.72;;;12.90;99.90;;;;;;5078676;28;20047;-65
2021/06/16 05:06:46;;;;;;;9.45;6.65;;;13.00;99.90;;;;;;5070789;28;20115;-65
2021/06/16 05:09:11;;;;;;;13.15;7.78;;;13.10;99.90;;;;;;5092254;28;20089;-65
2021/06/16 05:11:37;;;;;;;9.40;7.00;;;13.20;99.90;;;;;;5074070;28;20040;-65
2021/06/16 05:14:03;;;;;;;9.70;6.68;;;13.30;99.90;;;;;;5071952;28;20039;-65
2021/06/16 05:16:29;;;;;;;9.65;6.72;;;13.40;99.90;;;;;;5071704;28;20040;-65
2021/06/16 05:18:56;;;;;;;11.85;7.45;;;13.50;99.90;;;;;;5071650;28;20062;-65
2021/06/16 05:21:22;;;;;;;11.35;7.25;;;13.60;99.90;;;;;;5083904;28;20043;-65
2021/06/16 05:23:49;;;;;;;9.48;6.93;;;13.60;99.90;;;;;;5089855;28;20127;-65
2021/06/16 05:26:16;;;;;;;12.35;6.53;;;13.70;99.90;;;;;;5091848;28;20040;-65
2021/06/16 05:28:42;;;;;;;11.65;7.13;;;13.80;99.90;;;;;;5091498;28;20035;-65
2021/06/16 05:31:09;;;;;;;8.90;6.38;;;14.00;99.90;;;;;;5088263;28;20044;-65
2021/06/16 05:33:35;;;;;;;9.00;6.65;;;14.10;99.90;;;;;;5090483;28;20433;-66
2021/06/16 05:36:01;;;;;;;12.60;7.05;;;14.20;99.90;;;;;;5072711;28;20036;-66
2021/06/16 05:38:28;;;;;;;10.43;6.15;;;14.30;99.90;;;;;;5091033;28;20393;-66
2021/06/16 05:40:53;;;;;;;13.07;6.80;;;14.40;99.90;;;;;;5090634;28;20096;-65
2021/06/16 05:43:19;;;;;;;8.55;6.18;;;14.60;99.90;;;;;;5072071;28;20032;-66
2021/06/16 05:45:45;;;;;;;10.07;5.70;;;14.80;99.90;;;;;;5089437;28;20063;-66
2021/06/16 05:48:10;;;;;;;8.38;5.55;;;15.40;99.70;;;;;;5091502;28;20047;-66
2021/06/16 05:50:36;;;;;;;9.07;5.40;;;17.30;95.70;;;;;;5089705;28;20102;-66
2021/06/16 05:53:02;;;;;;;5.80;4.68;;;18.80;95.00;;;;;;5070548;28;20048;-66
2021/06/16 05:55:28;;;;;;;10.35;4.72;;;20.30;92.00;;;;;;5071129;28;20482;-66
2021/06/16 05:57:53;;;;;;;7.53;4.50;;;21.50;90.70;;;;;;5075534;28;20097;-66
2021/06/16 06:00:20;;;;;;;7.13;4.40;;;22.40;81.50;;;;;;5072277;28;20048;-66
2021/06/16 06:02:46;;;;;;;6.50;4.10;;;22.70;82.50;;;;;;5083569;28;20043;-66
2021/06/16 06:05:12;;;;;;;7.00;4.20;;;23.50;80.40;;;;;;5074963;28;20059;-66
2021/06/16 06:07:38;;;;;;;7.25;4.50;;;24.50;80.10;;;;;;5071974;28;20643;-66
2021/06/16 06:10:04;;;;;;;6.45;3.70;;;25.20;75.30;;;;;;5084095;28;20048;-66
2021/06/16 06:12:30;;;;;;;10.02;4.22;;;25.30;68.50;;;;;;5089316;28;20074;-67
2021/06/16 06:14:56;;;;;;;5.93;3.67;;;25.60;68.20;;;;;;5089367;28;20063;-67
2021/06/16 06:17:22;;;;;;;6.25;3.70;;;25.60;66.60;;;;;;5072911;28;20032;-67
2021/06/16 06:19:47;;;;;;;6.88;3.80;;;26.10;63.30;;;;;;5080408;28;20150;-67
2021/06/16 06:22:14;;;;;;;9.80;3.78;;;26.00;60.80;;;;;;5080430;28;20063;-67
2021/06/16 06:24:40;;;;;;;7.53;3.97;;;26.40;63.20;;;;;;5081273;28;20466;-67
2021/06/16 06:27:07;;;;;;;7.90;3.75;;;26.40;59.10;;;;;;5079456;28;20040;-66
2021/06/16 06:29:33;;;;;;;4.72;3.58;;;26.80;60.30;;;;;;5079184;28;20036;-67
2021/06/16 06:31:59;;;;;;;6.72;3.85;;;26.90;59.40;;;;;;5080309;28;20481;-67
2021/06/16 06:34:25;;;;;;;7.40;3.70;;;27.10;55.70;;;;;;5084774;28;20036;-67
2021/06/16 06:36:50;;;;;;;6.40;3.50;;;27.00;57.20;;;;;;5089899;28;20123;-67
2021/06/16 06:39:17;;;;;;;4.95;3.08;;;26.30;57.50;;;;;;5089513;28;20071;-67
2021/06/16 06:41:44;;;;;;;7.03;3.55;;;27.00;59.90;;;;;;5089301;28;20447;-67
2021/06/16 06:44:09;;;;;;;6.72;3.33;;;27.20;57.70;;;;;;5079837;28;20086;-67
2021/06/16 06:46:35;;;;;;;7.20;3.42;;;27.50;55.50;;;;;;5085027;28;20044;-67
2021/06/16 06:49:01;;;;;;;5.70;3.35;;;27.20;54.40;;;;;;5071855;28;20473;-67
2021/06/16 06:51:27;;;;;;;7.05;3.50;;;27.30;55.00;;;;;;5077849;28;20028;-67
2021/06/16 06:53:53;;;;;;;5.07;2.90;;;27.20;55.20;;;;;;5089081;28;20032;-67
2021/06/16 06:56:19;;;;;;;6.07;3.13;;;28.10;56.50;;;;;;5084324;28;20024;-67
2021/06/16 06:58:44;;;;;;;4.57;2.85;;;28.30;54.10;;;;;;5071098;28;20074;-67
2021/06/16 07:01:10;;;;;;;6.15;3.00;;;27.70;54.60;;;;;;5071597;28;20048;-66
2021/06/16 07:03:36;;;;;;;6.13;2.67;;;28.50;55.70;;;;;;5086857;28;20066;-66
2021/06/16 07:06:02;;;;;;;6.20;2.17;;;29.20;56.30;;;;;;5079375;28;20473;-66
2021/06/16 07:08:27;;;;;;;7.72;2.65;;;30.00;54.30;;;;;;5070462;28;20032;-67
2021/06/16 07:10:53;;;;;;;6.00;2.67;;;29.90;51.00;;;;;;5088603;28;20135;-67
2021/06/16 07:13:18;;;;;;;4.97;2.72;;;29.70;50.50;;;;;;5072102;28;20469;-66
2021/06/16 07:15:44;;;;;;;6.03;2.60;;;29.60;49.20;;;;;;5089216;28;20032;-66
2021/06/16 07:18:10;;;;;;;5.25;2.60;;;29.30;52.20;;;;;;5076097;28;20048;-67
2021/06/16 07:20:35;;;;;;;7.30;2.85;;;29.10;50.90;;;;;;5090183;28;20070;-66
2021/06/16 07:23:01;;;;;;;6.57;2.80;;;28.90;50.40;;;;;;5076109;28;20119;-66
2021/06/16 07:25:27;;;;;;;6.25;2.60;;;28.00;50.80;;;;;;5070599;28;20055;-67
2021/06/16 07:27:54;;;;;;;6.85;2.60;;;28.60;52.90;;;;;;5079307;28;20051;-66
2021/06/16 07:30:20;;;;;;;5.93;2.58;;;29.40;53.00;;;;;;5071910;28;20051;-66
2021/06/16 07:32:46;;;;;;;17.48;3.47;;;29.90;51.20;;;;;;5088215;28;20105;-67
2021/06/16 07:35:14;;;;;;;6.57;3.42;;;29.30;49.50;;;;;;5071177;28;20036;-66
2021/06/16 07:37:40;;;;;;;5.00;3.03;;;28.90;50.90;;;;;;5088290;28;20032;-66
2021/06/16 07:40:10;;;;;;;6.15;3.05;;;29.40;52.10;;;;;;5071907;28;20048;-67
2021/06/16 07:42:37;;;;;;;5.63;2.80;;;29.20;49.30;;;;;;5090171;28;20500;-66
2021/06/16 07:45:04;;;;;;;7.78;2.80;;;28.80;51.20;;;;;;5090117;28;20094;-67
2021/06/16 07:47:30;;;;;;;4.15;2.60;;;28.80;52.20;;;;;;5090323;28;20037;-66
2021/06/16 07:49:55;;;;;;;4.65;2.65;;;29.20;51.30;;;;;;5090080;28;20036;-66
2021/06/16 07:52:21;;;;;;;8.38;2.90;;;28.90;52.10;;;;;;5071481;28;20040;-66
2021/06/16 07:54:47;;;;;;;8.70;3.35;;;29.10;50.90;;;;;;5084984;28;20154;-67
2021/06/16 07:57:12;;;;;;;8.80;3.20;;;29.40;50.30;;;;;;5080230;28;20477;-66
2021/06/16 07:59:38;;;;;;;4.60;2.63;;;29.40;49.90;;;;;;5086330;28;20043;-67
2021/06/16 08:02:05;;;;;;;5.85;2.80;;;30.20;49.70;;;;;;5089890;28;20059;-67
2021/06/16 08:04:32;;;;;;;6.18;3.00;;;30.80;48.70;;;;;;5084275;28;20053;-67
2021/06/16 08:06:58;;;;;;;5.90;2.53;;;31.10;48.50;;;;;;5092662;28;20397;-67
2021/06/16 08:09:23;;;;;;;6.85;3.15;;;31.00;47.20;;;;;;5093342;28;20457;-67
2021/06/16 08:11:50;;;;;;;6.93;2.45;;;30.00;46.80;;;;;;5093977;28;20108;-67
2021/06/16 08:14:15;;;;;;;7.32;2.80;;;29.80;48.90;;;;;;5075498;28;20047;-67
2021/06/16 08:16:41;;;;;;;3.67;2.28;;;29.30;48.90;;;;;;5089876;28;20378;-67
2021/06/16 08:19:07;;;;;;;7.55;2.65;;;28.70;49.50;;;;;;5085894;28;20110;-67
2021/06/16 08:21:33;;;;;;;4.90;2.55;;;27.60;51.00;;;;;;5077320;28;20040;-67
2021/06/16 08:23:59;;;;;;;4.85;2.20;;;27.50;51.80;;;;;;5105405;28;20071;-67
2021/06/16 08:26:24;;;;;;;5.05;2.42;;;26.90;52.30;;;;;;5100491;28;20052;-67
2021/06/16 08:28:50;;;;;;;3.67;1.90;;;26.30;53.80;;;;;;5093367;28;20152;-67
2021/06/16 08:31:16;;;;;;;4.65;2.90;;;26.20;55.20;;;;;;5089707;28;20036;-66
2021/06/16 08:33:42;;;;;;;6.13;2.30;;;25.80;55.80;;;;;;5078616;28;20097;-67
2021/06/16 08:36:08;;;;;;;4.65;2.42;;;25.10;57.30;;;;;;5073096;28;20443;-67
2021/06/16 08:38:35;;;;;;;5.22;2.38;;;25.30;57.70;;;;;;5075543;28;20039;-67
2021/06/16 08:41:08;;;;;;;6.38;2.35;;;25.20;58.40;;;;;;5093217;28;20072;-67
2021/06/16 08:43:42;;;;;;;4.38;2.22;;;25.30;57.20;;;;;;5091954;28;20043;-67
2021/06/16 08:46:11;;;;;;;6.45;2.30;;;25.10;58.90;;;;;;5093359;28;20067;-67
2021/06/16 08:48:37;;;;;;;7.07;2.45;;;25.00;59.10;;;;;;5066539;28;20055;-67
2021/06/16 08:51:04;;;;;;;3.78;2.47;;;25.00;57.60;;;;;;5089850;28;20036;-67
2021/06/16 08:53:31;;;;;;;6.65;2.33;;;24.90;57.00;;;;;;5089742;28;20044;-67
2021/06/16 08:55:57;;;;;;;5.97;2.10;;;24.90;56.80;;;;;;5092491;28;20062;-67
2021/06/16 08:58:22;;;;;;;3.40;2.47;;;24.80;56.80;;;;;;5087475;28;20044;-67
2021/06/16 09:00:48;;;;;;;4.88;2.00;;;24.70;55.90;;;;;;5080193;28;20067;-68
2021/06/16 09:03:14;;;;;;;4.28;2.40;;;24.40;57.00;;;;;;5084449;28;20052;-68
2021/06/16 09:05:40;;;;;;;4.75;2.20;;;24.10;58.40;;;;;;5086554;28;20483;-68
2021/06/16 09:08:16;;;;;;;5.15;2.25;;;24.20;59.60;;;;;;5084446;28;20044;-68
2021/06/16 09:10:47;;;;;;;7.07;2.63;;;24.10;59.10;;;;;;5085285;28;20385;-68
2021/06/16 09:13:27;;;;;;;5.07;2.40;;;24.20;60.00;;;;;;5083401;28;21939;-68
2021/06/16 09:15:54;;;;;;;7.53;2.50;;;24.40;62.60;;;;;;5066866;28;20093;-68
2021/06/16 09:18:20;;;;;;;4.15;2.40;;;24.60;59.10;;;;;;5084299;28;20297;-68
2021/06/16 09:20:48;;;;;;;4.53;2.20;;;24.70;58.80;;;;;;5088408;28;20050;-68
2021/06/16 09:23:18;;;;;;;5.30;2.35;;;24.70;57.00;;;;;;5094665;28;20469;-68
2021/06/16 09:26:03;;;;;;;4.80;2.25;;;24.60;57.40;;;;;;5083532;28;20036;-67
2021/06/16 09:28:48;;;;;;;7.05;1.73;;;24.50;59.20;;;;;;5085044;28;20119;-67
2021/06/16 09:31:15;;;;;;;4.15;2.13;;;24.70;57.70;;;;;;5083907;28;20082;-67
2021/06/16 09:33:42;;;;;;;5.18;1.83;;;24.90;58.50;;;;;;5071499;28;20054;-67
2021/06/16 09:36:17;;;;;;;4.85;2.08;;;24.90;57.30;;;;;;5079995;28;20044;-67
2021/06/16 09:38:46;;;;;;;4.30;1.98;;;24.80;56.00;;;;;;5074224;28;20433;-68
2021/06/16 09:41:14;;;;;;;5.20;2.67;;;24.80;56.30;;;;;;5090832;28;20097;-68
2021/06/16 09:43:41;;;;;;;3.75;2.22;;;24.70;56.00;;;;;;5078553;28;20065;-68
2021/06/16 09:46:10;;;;;;;6.35;2.10;;;24.80;56.40;;;;;;5086608;28;20508;-68
2021/06/16 09:48:40;;;;;;;5.13;1.88;;;24.70;56.00;;;;;;5072989;28;20036;-69
2021/06/16 09:51:15;;;;;;;3.83;2.08;;;24.80;57.60;;;;;;5090576;28;20047;-68
2021/06/16 09:54:11;;;;;;;6.03;2.15;;;24.60;57.50;;;;;;5089125;28;20047;-67
2021/06/16 09:56:41;;;;;;;3.28;1.67;;;24.50;57.00;;;;;;5091456;28;20455;-67
2021/06/16 09:59:07;;;;;;;4.85;2.10;;;24.80;57.10;;;;;;5071652;28;20036;-67
2021/06/16 10:01:47;;;;;;;6.80;2.05;;;25.00;58.90;;;;;;5089456;28;20036;-68
2021/06/16 10:04:31;;;;;;;5.90;1.92;;;25.20;57.10;;;;;;5085745;28;20123;-67
2021/06/16 10:07:12;;;;;;;4.75;1.52;;;25.40;58.00;;;;;;5074231;28;20042;-67
2021/06/16 10:09:45;;;;;;;3.63;1.83;;;25.60;57.70;;;;;;5080079;28;20058;-67
2021/06/16 10:12:11;;;;;;;4.97;1.73;;;25.60;53.80;;;;;;5090619;28;20046;-67
2021/06/16 10:14:37;;;;;;;3.00;1.52;;;25.30;53.20;;;;;;5091227;28;20525;-67
2021/06/16 10:17:03;;;;;;;2.83;1.67;;;25.30;53.50;;;;;;5091983;28;20035;-67
2021/06/16 10:19:29;;;;;;;5.18;1.90;;;25.50;55.00;;;;;;5091431;28;20457;-67
2021/06/16 10:21:55;;;;;;;4.75;1.70;;;25.30;55.40;;;;;;5091705;28;20073;-67
2021/06/16 10:24:21;;;;;;;5.07;1.80;;;25.40;56.80;;;;;;5091240;28;20093;-67
2021/06/16 10:26:52;;;;;;;4.20;1.95;;;25.70;55.20;;;;;;5074827;28;20420;-66
2021/06/16 10:29:18;;;;;;;5.78;1.85;;;25.50;54.70;;;;;;5090218;28;20063;-66
2021/06/16 10:31:44;;;;;;;5.05;1.88;;;25.70;56.50;;;;;;5090402;28;20052;-66
2021/06/16 10:34:10;;;;;;;3.20;1.67;;;25.90;56.80;;;;;;5088020;28;20047;-66
2021/06/16 10:36:36;;;;;;;6.25;1.95;;;26.10;56.40;;;;;;5090048;28;20044;-67
2021/06/16 10:39:09;;;;;;;3.13;1.60;;;26.30;53.80;;;;;;5091427;28;20097;-66
2021/06/16 10:41:40;;;;;;;5.00;1.65;;;26.20;54.90;;;;;;5067105;28;20047;-66
2021/06/16 10:44:09;;;;;;;;;;;25.70;53.10;;;;;;5083762;28;20063;-66
2021/06/16 10:46:54;;;;;;;3.58;2.05;;;25.90;55.00;;;;;;5090454;28;19923;-66
2021/06/16 10:49:40;;;;;;;5.78;1.77;;;25.90;51.90;;;;;;5074399;28;20051;-67
2021/06/16 10:52:06;;;;;;;4.90;2.22;;;25.90;53.90;;;;;;5089541;28;20397;-66
2021/06/16 10:54:33;;;;;;;6.30;1.63;;;25.90;52.40;;;;;;5090829;28;20492;-67
2021/06/16 10:57:11;;;;;;;4.38;1.50;;;26.10;54.30;;;;;;5090837;28;20028;-66
2021/06/16 10:59:42;;;;;;;5.32;2.00;;;26.20;54.70;;;;;;5087357;28;20067;-66
2021/06/16 11:02:12;;;;;;;;;;;26.30;50.90;;;;;;5088539;28;20087;-66
2021/06/16 11:04:38;;;;;;;2.97;1.35;;;26.30;52.80;;;;;;5082112;28;19920;-66
2021/06/16 11:07:24;;;;;;;4.70;1.60;;;26.40;52.80;;;;;;5052700;28;20039;-66
2021/06/16 11:09:52;;;;;;;4.80;1.90;;;26.60;53.60;;;;;;5079613;28;20040;-66
2021/06/16 11:12:37;;;;;;;5.07;1.60;;;26.90;52.50;;;;;;5111164;28;20048;-66
2021/06/16 11:15:08;;;;;;;3.65;1.60;;;26.60;49.90;;;;;;5070828;28;20044;-66
2021/06/16 11:17:33;;;;;;;4.50;1.88;;;26.70;50.10;;;;;;5082475;28;20393;-66
2021/06/16 11:20:10;;;;;;;3.25;1.58;;;26.70;50.90;;;;;;5090683;28;20036;-66
2021/06/16 11:22:45;;;;;;;3.55;1.60;;;26.70;51.00;;;;;;5090474;28;20047;-66
2021/06/16 11:25:33;;;;;;;3.30;1.50;;;26.80;51.00;;;;;;5087633;28;20056;-66
2021/06/16 11:28:16;;;;;;;6.55;1.50;;;26.90;49.10;;;;;;5085741;28;20071;-66
2021/06/16 11:30:54;;;;;;;2.42;1.50;;;26.80;48.90;;;;;;5090836;28;20040;-66
2021/06/16 11:33:23;;;;;;;3.80;1.63;;;26.70;49.60;;;;;;5090351;28;20497;-66
2021/06/16 11:35:48;;;;;;;4.03;1.60;;;26.90;51.60;;;;;;5089599;28;20028;-66
2021/06/16 11:38:20;;;;;;;3.20;1.50;;;26.90;51.60;;;;;;5082729;28;20040;-66
2021/06/16 11:41:00;;;;;;;4.20;1.58;;;26.90;51.00;;;;;;5083608;28;20048;-66
2021/06/16 11:43:50;;;;;;;3.30;1.40;;;27.10;50.40;;;;;;5094707;28;20107;-66
2021/06/16 11:46:35;;;;;;;4.07;1.60;;;27.10;49.90;;;;;;5094336;28;20119;-66
2021/06/16 11:49:10;;;;;;;2.88;1.63;;;27.10;49.00;;;;;;5091330;28;20040;-66
2021/06/16 11:51:42;;;;;;;4.57;1.77;;;27.10;48.80;;;;;;5089341;28;20478;-66
2021/06/16 11:54:23;;;;;;;2.88;1.20;;;27.20;50.90;;;;;;5094128;28;20064;-66
2021/06/16 11:56:54;;;;;;;4.30;1.35;;;27.30;51.20;;;;;;5090314;28;20036;-66
2021/06/16 11:59:40;;;;;;;5.75;1.63;;;27.40;51.20;;;;;;5093654;28;20044;-68
2021/06/16 12:02:09;;;;;;;3.30;1.92;;;27.10;49.20;;;;;;5087938;28;20066;-66
2021/06/16 12:05:05;;;;;;;5.65;1.73;;;27.10;48.50;;;;;;5093297;28;20080;-66
2021/06/16 12:07:39;;;;;;;3.10;1.50;;;27.20;50.90;;;;;;5092363;28;20033;-67
2021/06/16 12:10:09;;;;;;;4.05;1.70;;;27.30;49.30;;;;;;5093563;28;20516;-66
2021/06/16 12:12:46;;;;;;;6.95;2.00;;;27.30;49.60;;;;;;5074634;28;20035;-67
2021/06/16 12:15:15;;;;;;;2.45;1.40;;;27.30;48.00;;;;;;5094166;28;20048;-66
2021/06/16 12:18:06;;;;;;;15.10;1.90;;;27.40;50.10;;;;;;5093987;28;20564;-66
2021/06/16 12:20:38;;;;;;;2.80;1.30;;;27.60;49.70;;;;;;5094080;28;20485;-66
2021/06/16 12:23:18;;;;;;;3.63;1.50;;;27.70;47.80;;;;;;5093842;28;20028;-67
2021/06/16 12:25:44;;;;;;;2.38;1.58;;;27.80;51.30;;;;;;5093962;28;20381;-66
2021/06/16 12:28:09;;;;;;;4.45;1.60;;;27.90;48.00;;;;;;5092325;28;20126;-67
2021/06/16 12:30:37;;;;;;;3.88;1.50;;;28.10;50.60;;;;;;5093930;28;20515;-66
2021/06/16 12:33:12;;;;;;;3.30;1.50;;;28.10;49.90;;;;;;5093589;28;20473;-66
2021/06/16 12:35:46;;;;;;;6.40;1.75;;;28.10;48.80;;;;;;5093831;28;20036;-66
2021/06/16 12:38:11;;;;;;;6.03;1.75;;;28.20;47.80;;;;;;5093532;28;20064;-67
2021/06/16 12:40:40;;;;;;;4.25;1.70;;;28.20;49.20;;;;;;5087212;28;20055;-66
2021/06/16 12:43:08;;;;;;;4.32;1.73;;;28.20;49.10;;;;;;5075873;28;20036;-65
2021/06/16 12:45:36;;;;;;;4.05;1.73;;;28.20;51.20;;;;;;5093366;28;20070;-66
2021/06/16 12:48:23;;;;;;;4.95;1.70;;;28.20;50.20;;;;;;5087685;28;20627;-66
2021/06/16 12:50:54;;;;;;;4.70;2.08;;;28.10;49.10;;;;;;5091982;28;20131;-66
2021/06/16 12:53:20;;;;;;;2.35;1.27;;;27.90;47.00;;;;;;5091891;28;20040;-67